sensor_id;sensor_type;location;lat;lon;timestamp;P1;durP1;ratioP1;P2;durP2;ratioP2
5171;SDS011;2605;49.770;9.868;2023-05-07T00:01:22;6.33;;;4.40;;
5171;SDS011;2605;49.770;9.868;2023-05-07T00:03:48;5.07;;;4.50;;
5171;SDS011;2605;49.770;9.868;2023-05-07T00:06:14;4.87;;;4.47;;
5171;SDS011;2605;49.770;9.868;2023-05-07T00:08:39;4.90;;;4.50;;
5171;SDS011;2605;49.770;9.868;2023-05-07T00:11:05;6.40;;;4.57;;
5171;SDS011;2605;49.770;9.868;2023-05-07T00:13:30;5.90;;;4.57;;
5171;SDS011;2605;49.770;9.868;2023-05-07T00:16:01;4.90;;;4.40;;
5171;SDS011;2605;49.770;9.868;2023-05-07T00:18:27;5.30;;;4.90;;
5171;SDS011;2605;49.770;9.868;2023-05-07T00:20:52;5.40;;;4.27;;
5171;SDS011;2605;49.770;9.868;2023-05-07T00:23:21;6.50;;;5.37;;
5171;SDS011;2605;49.770;9.868;2023-05-07T00:25:47;5.00;;;4.60;;
5171;SDS011;2605;49.770;9.868;2023-05-07T00:28:12;5.53;;;5.10;;
5171;SDS011;2605;49.770;9.868;2023-05-07T00:30:38;5.07;;;4.67;;
5171;SDS011;2605;49.770;9.868;2023-05-07T00:33:03;5.60;;;5.00;;
5171;SDS011;2605;49.770;9.868;2023-05-07T00:35:29;4.73;;;4.33;;
5171;SDS011;2605;49.770;9.868;2023-05-07T00:37:55;6.53;;;4.53;;
5171;SDS011;2605;49.770;9.868;2023-05-07T00:40:20;4.53;;;4.13;;
5171;SDS011;2605;49.770;9.868;2023-05-07T00:42:46;7.17;;;4.77;;
5171;SDS011;2605;49.770;9.868;2023-05-07T00:45:13;5.63;;;4.63;;
5171;SDS011;2605;49.770;9.868;2023-05-07T00:47:40;5.60;;;5.10;;
5171;SDS011;2605;49.770;9.868;2023-05-07T00:50:06;4.80;;;4.40;;
5171;SDS011;2605;49.770;9.868;2023-05-07T00:52:32;5.90;;;4.33;;
5171;SDS011;2605;49.770;9.868;2023-05-07T00:54:59;4.13;;;3.80;;
5171;SDS011;2605;49.770;9.868;2023-05-07T00:57:29;5.50;;;5.00;;
5171;SDS011;2605;49.770;9.868;2023-05-07T00:59:57;4.70;;;4.40;;
5171;SDS011;2605;49.770;9.868;2023-05-07T01:02:22;4.40;;;4.00;;
5171;SDS011;2605;49.770;9.868;2023-05-07T01:04:48;5.97;;;4.40;;
5171;SDS011;2605;49.770;9.868;2023-05-07T01:07:13;4.10;;;3.80;;
5171;SDS011;2605;49.770;9.868;2023-05-07T01:09:40;3.80;;;3.50;;
5171;SDS011;2605;49.770;9.868;2023-05-07T01:12:06;4.13;;;3.83;;
5171;SDS011;2605;49.770;9.868;2023-05-07T01:14:35;4.03;;;3.73;;
5171;SDS011;2605;49.770;9.868;2023-05-07T01:17:00;3.97;;;3.67;;
5171;SDS011;2605;49.770;9.868;2023-05-07T01:19:26;5.10;;;4.73;;
5171;SDS011;2605;49.770;9.868;2023-05-07T01:22:01;4.60;;;4.20;;
5171;SDS011;2605;49.770;9.868;2023-05-07T01:24:32;3.70;;;3.40;;
5171;SDS011;2605;49.770;9.868;2023-05-07T01:26:59;4.20;;;3.80;;
5171;SDS011;2605;49.770;9.868;2023-05-07T01:29:26;3.70;;;3.50;;
5171;SDS011;2605;49.770;9.868;2023-05-07T01:31:52;3.53;;;3.23;;
5171;SDS011;2605;49.770;9.868;2023-05-07T01:34:18;4.37;;;3.70;;
5171;SDS011;2605;49.770;9.868;2023-05-07T01:36:46;3.90;;;3.70;;
5171;SDS011;2605;49.770;9.868;2023-05-07T01:39:12;4.37;;;4.00;;
5171;SDS011;2605;49.770;9.868;2023-05-07T01:41:42;4.03;;;3.73;;
5171;SDS011;2605;49.770;9.868;2023-05-07T01:44:08;4.40;;;4.00;;
5171;SDS011;2605;49.770;9.868;2023-05-07T01:46:35;5.30;;;4.80;;
5171;SDS011;2605;49.770;9.868;2023-05-07T01:49:01;4.67;;;4.27;;
5171;SDS011;2605;49.770;9.868;2023-05-07T01:51:27;4.00;;;3.70;;
5171;SDS011;2605;49.770;9.868;2023-05-07T01:53:52;4.10;;;3.70;;
5171;SDS011;2605;49.770;9.868;2023-05-07T01:56:18;4.20;;;3.90;;
5171;SDS011;2605;49.770;9.868;2023-05-07T01:58:45;4.40;;;4.00;;
5171;SDS011;2605;49.770;9.868;2023-05-07T02:01:17;4.17;;;3.93;;
5171;SDS011;2605;49.770;9.868;2023-05-07T02:03:43;4.00;;;3.70;;
5171;SDS011;2605;49.770;9.868;2023-05-07T02:06:09;5.40;;;4.30;;
5171;SDS011;2605;49.770;9.868;2023-05-07T02:08:34;3.77;;;3.57;;
5171;SDS011;2605;49.770;9.868;2023-05-07T02:11:00;4.07;;;3.77;;
5171;SDS011;2605;49.770;9.868;2023-05-07T02:13:29;4.00;;;3.70;;
5171;SDS011;2605;49.770;9.868;2023-05-07T02:15:57;8.20;;;5.10;;
5171;SDS011;2605;49.770;9.868;2023-05-07T02:18:22;5.60;;;5.10;;
5171;SDS011;2605;49.770;9.868;2023-05-07T02:20:48;4.77;;;4.27;;
5171;SDS011;2605;49.770;9.868;2023-05-07T02:23:13;8.50;;;4.30;;
5171;SDS011;2605;49.770;9.868;2023-05-07T02:25:39;6.57;;;4.53;;
5171;SDS011;2605;49.770;9.868;2023-05-07T02:28:05;5.40;;;5.00;;
5171;SDS011;2605;49.770;9.868;2023-05-07T02:30:31;4.43;;;4.13;;
5171;SDS011;2605;49.770;9.868;2023-05-07T02:32:57;4.13;;;3.40;;
5171;SDS011;2605;49.770;9.868;2023-05-07T02:35:24;5.00;;;4.50;;
5171;SDS011;2605;49.770;9.868;2023-05-07T02:37:50;4.87;;;4.57;;
5171;SDS011;2605;49.770;9.868;2023-05-07T02:40:15;6.00;;;4.77;;
5171;SDS011;2605;49.770;9.868;2023-05-07T02:42:41;4.90;;;4.50;;
5171;SDS011;2605;49.770;9.868;2023-05-07T02:45:06;5.10;;;4.70;;
5171;SDS011;2605;49.770;9.868;2023-05-07T02:47:32;5.03;;;4.53;;
5171;SDS011;2605;49.770;9.868;2023-05-07T02:49:58;4.77;;;4.37;;
5171;SDS011;2605;49.770;9.868;2023-05-07T02:52:23;6.57;;;5.50;;
5171;SDS011;2605;49.770;9.868;2023-05-07T02:54:49;4.80;;;4.50;;
5171;SDS011;2605;49.770;9.868;2023-05-07T02:57:14;4.37;;;3.97;;
5171;SDS011;2605;49.770;9.868;2023-05-07T02:59:40;4.67;;;4.37;;
5171;SDS011;2605;49.770;9.868;2023-05-07T03:02:06;4.70;;;4.37;;
5171;SDS011;2605;49.770;9.868;2023-05-07T03:04:31;4.73;;;4.33;;
5171;SDS011;2605;49.770;9.868;2023-05-07T03:06:57;4.80;;;4.40;;
5171;SDS011;2605;49.770;9.868;2023-05-07T03:09:22;4.93;;;4.53;;
5171;SDS011;2605;49.770;9.868;2023-05-07T03:11:48;4.43;;;4.13;;
5171;SDS011;2605;49.770;9.868;2023-05-07T03:14:13;7.67;;;5.30;;
5171;SDS011;2605;49.770;9.868;2023-05-07T03:16:39;8.20;;;6.63;;
5171;SDS011;2605;49.770;9.868;2023-05-07T03:19:05;10.57;;;7.47;;
5171;SDS011;2605;49.770;9.868;2023-05-07T03:21:30;11.87;;;6.00;;
5171;SDS011;2605;49.770;9.868;2023-05-07T03:23:58;6.00;;;5.50;;
5171;SDS011;2605;49.770;9.868;2023-05-07T03:26:24;6.20;;;5.67;;
5171;SDS011;2605;49.770;9.868;2023-05-07T03:28:50;6.20;;;5.70;;
5171;SDS011;2605;49.770;9.868;2023-05-07T03:31:15;5.67;;;5.17;;
5171;SDS011;2605;49.770;9.868;2023-05-07T03:33:51;6.60;;;6.10;;
5171;SDS011;2605;49.770;9.868;2023-05-07T03:36:20;7.47;;;6.73;;
5171;SDS011;2605;49.770;9.868;2023-05-07T03:38:47;9.00;;;5.60;;
5171;SDS011;2605;49.770;9.868;2023-05-07T03:41:13;6.53;;;5.60;;
5171;SDS011;2605;49.770;9.868;2023-05-07T03:43:38;7.03;;;6.47;;
5171;SDS011;2605;49.770;9.868;2023-05-07T03:46:04;7.03;;;6.40;;
5171;SDS011;2605;49.770;9.868;2023-05-07T03:48:29;6.63;;;6.13;;
5171;SDS011;2605;49.770;9.868;2023-05-07T03:50:55;7.60;;;5.87;;
5171;SDS011;2605;49.770;9.868;2023-05-07T03:53:22;6.67;;;6.07;;
5171;SDS011;2605;49.770;9.868;2023-05-07T03:55:47;6.20;;;5.60;;
5171;SDS011;2605;49.770;9.868;2023-05-07T03:58:13;6.90;;;6.30;;
5171;SDS011;2605;49.770;9.868;2023-05-07T04:00:41;6.90;;;6.30;;
5171;SDS011;2605;49.770;9.868;2023-05-07T04:03:07;7.23;;;6.60;;
5171;SDS011;2605;49.770;9.868;2023-05-07T04:05:33;6.50;;;6.00;;
5171;SDS011;2605;49.770;9.868;2023-05-07T04:07:58;7.23;;;6.47;;
5171;SDS011;2605;49.770;9.868;2023-05-07T04:10:24;7.63;;;6.90;;
5171;SDS011;2605;49.770;9.868;2023-05-07T04:12:50;7.43;;;6.70;;
5171;SDS011;2605;49.770;9.868;2023-05-07T04:15:15;8.20;;;7.40;;
5171;SDS011;2605;49.770;9.868;2023-05-07T04:17:41;7.70;;;7.07;;
5171;SDS011;2605;49.770;9.868;2023-05-07T04:20:10;7.93;;;7.23;;
5171;SDS011;2605;49.770;9.868;2023-05-07T04:22:39;8.20;;;7.37;;
5171;SDS011;2605;49.770;9.868;2023-05-07T04:25:05;7.47;;;6.80;;
5171;SDS011;2605;49.770;9.868;2023-05-07T04:27:31;7.27;;;6.67;;
5171;SDS011;2605;49.770;9.868;2023-05-07T04:29:57;9.60;;;8.40;;
5171;SDS011;2605;49.770;9.868;2023-05-07T04:32:22;7.80;;;7.10;;
5171;SDS011;2605;49.770;9.868;2023-05-07T04:34:49;8.60;;;7.77;;
5171;SDS011;2605;49.770;9.868;2023-05-07T04:37:15;8.63;;;7.73;;
5171;SDS011;2605;49.770;9.868;2023-05-07T04:39:40;8.70;;;7.80;;
5171;SDS011;2605;49.770;9.868;2023-05-07T04:42:06;8.33;;;7.60;;
5171;SDS011;2605;49.770;9.868;2023-05-07T04:44:33;9.70;;;8.10;;
5171;SDS011;2605;49.770;9.868;2023-05-07T04:46:59;9.20;;;8.30;;
5171;SDS011;2605;49.770;9.868;2023-05-07T04:49:25;10.20;;;8.87;;
5171;SDS011;2605;49.770;9.868;2023-05-07T04:51:50;11.90;;;7.93;;
5171;SDS011;2605;49.770;9.868;2023-05-07T04:54:16;8.27;;;7.33;;
5171;SDS011;2605;49.770;9.868;2023-05-07T04:56:41;7.67;;;7.07;;
5171;SDS011;2605;49.770;9.868;2023-05-07T04:59:07;9.67;;;8.87;;
5171;SDS011;2605;49.770;9.868;2023-05-07T05:01:32;9.43;;;8.60;;
5171;SDS011;2605;49.770;9.868;2023-05-07T05:03:58;10.10;;;9.20;;
5171;SDS011;2605;49.770;9.868;2023-05-07T05:06:25;9.13;;;8.20;;
5171;SDS011;2605;49.770;9.868;2023-05-07T05:08:50;9.07;;;8.17;;
5171;SDS011;2605;49.770;9.868;2023-05-07T05:11:16;8.80;;;8.10;;
5171;SDS011;2605;49.770;9.868;2023-05-07T05:13:41;11.47;;;8.73;;
5171;SDS011;2605;49.770;9.868;2023-05-07T05:16:07;8.80;;;7.90;;
5171;SDS011;2605;49.770;9.868;2023-05-07T05:18:32;10.17;;;9.17;;
5171;SDS011;2605;49.770;9.868;2023-05-07T05:20:58;8.40;;;7.63;;
5171;SDS011;2605;49.770;9.868;2023-05-07T05:23:23;8.23;;;7.53;;
5171;SDS011;2605;49.770;9.868;2023-05-07T05:25:49;8.90;;;8.10;;
5171;SDS011;2605;49.770;9.868;2023-05-07T05:28:15;10.23;;;9.33;;
5171;SDS011;2605;49.770;9.868;2023-05-07T05:30:40;10.80;;;9.80;;
5171;SDS011;2605;49.770;9.868;2023-05-07T05:33:06;10.10;;;9.13;;
5171;SDS011;2605;49.770;9.868;2023-05-07T05:35:31;9.30;;;8.60;;
5171;SDS011;2605;49.770;9.868;2023-05-07T05:37:56;10.30;;;9.40;;
5171;SDS011;2605;49.770;9.868;2023-05-07T05:40:22;10.50;;;9.60;;
5171;SDS011;2605;49.770;9.868;2023-05-07T05:42:47;10.43;;;9.53;;
5171;SDS011;2605;49.770;9.868;2023-05-07T05:45:16;11.63;;;8.80;;
5171;SDS011;2605;49.770;9.868;2023-05-07T05:47:42;9.60;;;8.70;;
5171;SDS011;2605;49.770;9.868;2023-05-07T05:50:08;10.13;;;9.23;;
5171;SDS011;2605;49.770;9.868;2023-05-07T05:52:34;9.70;;;8.90;;
5171;SDS011;2605;49.770;9.868;2023-05-07T05:54:59;9.20;;;8.33;;
5171;SDS011;2605;49.770;9.868;2023-05-07T05:57:25;8.67;;;7.87;;
5171;SDS011;2605;49.770;9.868;2023-05-07T05:59:50;9.63;;;8.60;;
5171;SDS011;2605;49.770;9.868;2023-05-07T06:02:16;9.93;;;9.03;;
5171;SDS011;2605;49.770;9.868;2023-05-07T06:04:41;9.00;;;8.30;;
5171;SDS011;2605;49.770;9.868;2023-05-07T06:07:10;8.63;;;7.83;;
5171;SDS011;2605;49.770;9.868;2023-05-07T06:09:36;9.00;;;8.10;;
5171;SDS011;2605;49.770;9.868;2023-05-07T06:12:01;8.73;;;7.93;;
5171;SDS011;2605;49.770;9.868;2023-05-07T06:14:27;10.10;;;8.70;;
5171;SDS011;2605;49.770;9.868;2023-05-07T06:16:52;8.97;;;8.27;;
5171;SDS011;2605;49.770;9.868;2023-05-07T06:19:18;9.17;;;8.37;;
5171;SDS011;2605;49.770;9.868;2023-05-07T06:21:48;9.83;;;8.90;;
5171;SDS011;2605;49.770;9.868;2023-05-07T06:24:13;8.40;;;7.80;;
5171;SDS011;2605;49.770;9.868;2023-05-07T06:26:39;9.17;;;8.47;;
5171;SDS011;2605;49.770;9.868;2023-05-07T06:29:05;9.77;;;8.97;;
5171;SDS011;2605;49.770;9.868;2023-05-07T06:31:31;9.90;;;8.90;;
5171;SDS011;2605;49.770;9.868;2023-05-07T06:33:56;11.00;;;10.00;;
5171;SDS011;2605;49.770;9.868;2023-05-07T06:36:22;11.10;;;10.20;;
5171;SDS011;2605;49.770;9.868;2023-05-07T06:38:48;9.30;;;8.40;;
5171;SDS011;2605;49.770;9.868;2023-05-07T06:41:13;10.03;;;9.23;;
5171;SDS011;2605;49.770;9.868;2023-05-07T06:43:38;10.07;;;9.27;;
5171;SDS011;2605;49.770;9.868;2023-05-07T06:46:04;9.00;;;8.13;;
5171;SDS011;2605;49.770;9.868;2023-05-07T06:48:30;8.90;;;8.00;;
5171;SDS011;2605;49.770;9.868;2023-05-07T06:50:55;9.10;;;8.30;;
5171;SDS011;2605;49.770;9.868;2023-05-07T06:53:22;9.77;;;8.97;;
5171;SDS011;2605;49.770;9.868;2023-05-07T06:55:51;9.90;;;8.03;;
5171;SDS011;2605;49.770;9.868;2023-05-07T06:58:17;8.43;;;7.73;;
5171;SDS011;2605;49.770;9.868;2023-05-07T07:00:42;8.40;;;7.70;;
5171;SDS011;2605;49.770;9.868;2023-05-07T07:03:08;10.87;;;8.60;;
5171;SDS011;2605;49.770;9.868;2023-05-07T07:05:33;8.67;;;7.97;;
5171;SDS011;2605;49.770;9.868;2023-05-07T07:07:59;9.37;;;8.57;;
5171;SDS011;2605;49.770;9.868;2023-05-07T07:10:24;9.60;;;8.90;;
5171;SDS011;2605;49.770;9.868;2023-05-07T07:12:49;9.07;;;8.20;;
5171;SDS011;2605;49.770;9.868;2023-05-07T07:15:15;11.83;;;9.10;;
5171;SDS011;2605;49.770;9.868;2023-05-07T07:17:41;10.10;;;9.20;;
5171;SDS011;2605;49.770;9.868;2023-05-07T07:20:07;8.87;;;8.17;;
5171;SDS011;2605;49.770;9.868;2023-05-07T07:22:33;8.53;;;7.80;;
5171;SDS011;2605;49.770;9.868;2023-05-07T07:24:58;9.47;;;8.57;;
5171;SDS011;2605;49.770;9.868;2023-05-07T07:27:24;9.70;;;8.90;;
5171;SDS011;2605;49.770;9.868;2023-05-07T07:29:49;10.53;;;9.63;;
5171;SDS011;2605;49.770;9.868;2023-05-07T07:32:15;9.70;;;8.90;;
5171;SDS011;2605;49.770;9.868;2023-05-07T07:34:40;10.70;;;9.80;;
5171;SDS011;2605;49.770;9.868;2023-05-07T07:37:06;9.30;;;8.60;;
5171;SDS011;2605;49.770;9.868;2023-05-07T07:39:32;9.03;;;8.23;;
5171;SDS011;2605;49.770;9.868;2023-05-07T07:41:57;10.47;;;9.50;;
5171;SDS011;2605;49.770;9.868;2023-05-07T07:44:23;9.90;;;9.00;;
5171;SDS011;2605;49.770;9.868;2023-05-07T07:46:49;9.23;;;8.10;;
5171;SDS011;2605;49.770;9.868;2023-05-07T07:49:15;9.03;;;8.33;;
5171;SDS011;2605;49.770;9.868;2023-05-07T07:51:40;9.33;;;8.20;;
5171;SDS011;2605;49.770;9.868;2023-05-07T07:54:06;9.57;;;7.70;;
5171;SDS011;2605;49.770;9.868;2023-05-07T07:56:32;9.93;;;9.20;;
5171;SDS011;2605;49.770;9.868;2023-05-07T07:59:01;10.10;;;9.10;;
5171;SDS011;2605;49.770;9.868;2023-05-07T08:01:26;9.70;;;8.80;;
5171;SDS011;2605;49.770;9.868;2023-05-07T08:03:53;9.07;;;8.27;;
5171;SDS011;2605;49.770;9.868;2023-05-07T08:06:18;8.43;;;7.83;;
5171;SDS011;2605;49.770;9.868;2023-05-07T08:08:44;8.83;;;8.13;;
5171;SDS011;2605;49.770;9.868;2023-05-07T08:11:09;8.90;;;8.27;;
5171;SDS011;2605;49.770;9.868;2023-05-07T08:13:35;9.43;;;8.47;;
5171;SDS011;2605;49.770;9.868;2023-05-07T08:16:01;9.40;;;8.40;;
5171;SDS011;2605;49.770;9.868;2023-05-07T08:18:27;13.27;;;7.90;;
5171;SDS011;2605;49.770;9.868;2023-05-07T08:20:53;9.67;;;8.40;;
5171;SDS011;2605;49.770;9.868;2023-05-07T08:23:19;8.43;;;7.73;;
5171;SDS011;2605;49.770;9.868;2023-05-07T08:25:45;10.17;;;9.10;;
5171;SDS011;2605;49.770;9.868;2023-05-07T08:28:10;9.20;;;8.47;;
5171;SDS011;2605;49.770;9.868;2023-05-07T08:30:36;8.80;;;8.10;;
5171;SDS011;2605;49.770;9.868;2023-05-07T08:33:02;10.60;;;9.77;;
5171;SDS011;2605;49.770;9.868;2023-05-07T08:35:27;11.10;;;8.60;;
5171;SDS011;2605;49.770;9.868;2023-05-07T08:37:53;8.33;;;7.70;;
5171;SDS011;2605;49.770;9.868;2023-05-07T08:40:19;9.30;;;8.50;;
5171;SDS011;2605;49.770;9.868;2023-05-07T08:42:45;9.70;;;8.80;;
5171;SDS011;2605;49.770;9.868;2023-05-07T08:45:13;8.63;;;7.93;;
5171;SDS011;2605;49.770;9.868;2023-05-07T08:47:42;8.07;;;7.47;;
5171;SDS011;2605;49.770;9.868;2023-05-07T08:50:11;10.73;;;8.70;;
5171;SDS011;2605;49.770;9.868;2023-05-07T08:52:38;8.53;;;7.93;;
5171;SDS011;2605;49.770;9.868;2023-05-07T08:55:05;7.90;;;7.33;;
5171;SDS011;2605;49.770;9.868;2023-05-07T08:57:32;7.63;;;7.10;;
5171;SDS011;2605;49.770;9.868;2023-05-07T08:59:57;8.67;;;8.07;;
5171;SDS011;2605;49.770;9.868;2023-05-07T09:02:23;9.53;;;8.63;;
5171;SDS011;2605;49.770;9.868;2023-05-07T09:04:48;8.13;;;7.60;;
5171;SDS011;2605;49.770;9.868;2023-05-07T09:07:14;9.43;;;8.70;;
5171;SDS011;2605;49.770;9.868;2023-05-07T09:09:39;8.20;;;7.57;;
5171;SDS011;2605;49.770;9.868;2023-05-07T09:12:05;8.20;;;7.60;;
5171;SDS011;2605;49.770;9.868;2023-05-07T09:14:30;8.60;;;7.70;;
5171;SDS011;2605;49.770;9.868;2023-05-07T09:16:56;9.20;;;8.30;;
5171;SDS011;2605;49.770;9.868;2023-05-07T09:19:23;11.00;;;9.90;;
5171;SDS011;2605;49.770;9.868;2023-05-07T09:21:49;8.37;;;7.70;;
5171;SDS011;2605;49.770;9.868;2023-05-07T09:24:15;9.77;;;8.80;;
5171;SDS011;2605;49.770;9.868;2023-05-07T09:26:41;8.23;;;7.53;;
5171;SDS011;2605;49.770;9.868;2023-05-07T09:29:07;8.33;;;7.63;;
5171;SDS011;2605;49.770;9.868;2023-05-07T09:31:38;8.80;;;8.20;;
5171;SDS011;2605;49.770;9.868;2023-05-07T09:34:04;8.70;;;7.90;;
5171;SDS011;2605;49.770;9.868;2023-05-07T09:36:31;7.90;;;7.30;;
5171;SDS011;2605;49.770;9.868;2023-05-07T09:38:59;7.43;;;6.83;;
5171;SDS011;2605;49.770;9.868;2023-05-07T09:41:25;7.60;;;6.87;;
5171;SDS011;2605;49.770;9.868;2023-05-07T09:43:54;7.83;;;7.17;;
5171;SDS011;2605;49.770;9.868;2023-05-07T09:46:22;9.00;;;8.30;;
5171;SDS011;2605;49.770;9.868;2023-05-07T09:48:53;7.87;;;7.13;;
5171;SDS011;2605;49.770;9.868;2023-05-07T09:51:22;8.03;;;7.43;;
5171;SDS011;2605;49.770;9.868;2023-05-07T09:53:50;9.10;;;8.40;;
5171;SDS011;2605;49.770;9.868;2023-05-07T09:56:17;7.83;;;7.10;;
5171;SDS011;2605;49.770;9.868;2023-05-07T09:58:45;7.00;;;6.43;;
5171;SDS011;2605;49.770;9.868;2023-05-07T10:01:11;8.10;;;7.50;;
5171;SDS011;2605;49.770;9.868;2023-05-07T10:03:38;8.60;;;8.00;;
5171;SDS011;2605;49.770;9.868;2023-05-07T10:06:09;8.63;;;8.03;;
5171;SDS011;2605;49.770;9.868;2023-05-07T10:08:35;9.40;;;8.60;;
5171;SDS011;2605;49.770;9.868;2023-05-07T10:11:02;9.37;;;8.63;;
5171;SDS011;2605;49.770;9.868;2023-05-07T10:13:29;8.47;;;7.77;;
5171;SDS011;2605;49.770;9.868;2023-05-07T10:15:54;8.70;;;7.90;;
5171;SDS011;2605;49.770;9.868;2023-05-07T10:18:21;8.90;;;8.10;;
5171;SDS011;2605;49.770;9.868;2023-05-07T10:20:48;8.87;;;8.20;;
5171;SDS011;2605;49.770;9.868;2023-05-07T10:23:18;10.10;;;9.20;;
5171;SDS011;2605;49.770;9.868;2023-05-07T10:25:48;9.83;;;8.83;;
5171;SDS011;2605;49.770;9.868;2023-05-07T10:28:13;9.33;;;8.00;;
5171;SDS011;2605;49.770;9.868;2023-05-07T10:30:49;8.67;;;7.80;;
5171;SDS011;2605;49.770;9.868;2023-05-07T10:33:38;8.10;;;7.40;;
5171;SDS011;2605;49.770;9.868;2023-05-07T10:36:04;8.40;;;7.67;;
5171;SDS011;2605;49.770;9.868;2023-05-07T10:38:31;8.13;;;7.53;;
5171;SDS011;2605;49.770;9.868;2023-05-07T10:40:57;8.20;;;7.63;;
5171;SDS011;2605;49.770;9.868;2023-05-07T10:43:23;8.57;;;7.87;;
5171;SDS011;2605;49.770;9.868;2023-05-07T10:51:28;8.47;;;7.87;;
5171;SDS011;2605;49.770;9.868;2023-05-07T10:56:39;7.97;;;7.30;;
5171;SDS011;2605;49.770;9.868;2023-05-07T11:01:55;6.80;;;6.30;;
5171;SDS011;2605;49.770;9.868;2023-05-07T11:04:22;7.10;;;6.50;;
5171;SDS011;2605;49.770;9.868;2023-05-07T11:15:08;6.53;;;6.03;;
5171;SDS011;2605;49.770;9.868;2023-05-07T11:17:35;6.13;;;5.70;;
5171;SDS011;2605;49.770;9.868;2023-05-07T11:20:20;6.20;;;5.80;;
5171;SDS011;2605;49.770;9.868;2023-05-07T11:22:52;6.10;;;5.70;;
5171;SDS011;2605;49.770;9.868;2023-05-07T11:25:18;7.40;;;6.80;;
5171;SDS011;2605;49.770;9.868;2023-05-07T11:27:44;7.30;;;6.70;;
5171;SDS011;2605;49.770;9.868;2023-05-07T11:30:10;7.57;;;6.97;;
5171;SDS011;2605;49.770;9.868;2023-05-07T11:32:42;7.20;;;6.63;;
5171;SDS011;2605;49.770;9.868;2023-05-07T11:35:08;7.80;;;7.00;;
5171;SDS011;2605;49.770;9.868;2023-05-07T11:37:33;5.90;;;5.50;;
5171;SDS011;2605;49.770;9.868;2023-05-07T11:40:03;5.77;;;5.27;;
5171;SDS011;2605;49.770;9.868;2023-05-07T11:42:31;5.43;;;4.93;;
5171;SDS011;2605;49.770;9.868;2023-05-07T11:44:58;5.80;;;5.40;;
5171;SDS011;2605;49.770;9.868;2023-05-07T11:47:23;5.73;;;5.30;;
5171;SDS011;2605;49.770;9.868;2023-05-07T11:49:50;5.33;;;4.93;;
5171;SDS011;2605;49.770;9.868;2023-05-07T11:52:18;5.80;;;5.40;;
5171;SDS011;2605;49.770;9.868;2023-05-07T11:54:51;5.73;;;5.33;;
5171;SDS011;2605;49.770;9.868;2023-05-07T11:57:21;6.03;;;5.50;;
5171;SDS011;2605;49.770;9.868;2023-05-07T11:59:47;5.80;;;5.40;;
5171;SDS011;2605;49.770;9.868;2023-05-07T12:02:17;5.60;;;5.20;;
5171;SDS011;2605;49.770;9.868;2023-05-07T12:04:43;5.80;;;5.40;;
5171;SDS011;2605;49.770;9.868;2023-05-07T12:07:17;5.57;;;5.17;;
5171;SDS011;2605;49.770;9.868;2023-05-07T12:09:44;6.30;;;5.70;;
5171;SDS011;2605;49.770;9.868;2023-05-07T12:12:10;4.73;;;4.43;;
5171;SDS011;2605;49.770;9.868;2023-05-07T12:14:39;6.07;;;5.17;;
5171;SDS011;2605;49.770;9.868;2023-05-07T12:17:05;7.00;;;6.40;;
5171;SDS011;2605;49.770;9.868;2023-05-07T12:19:33;5.77;;;5.37;;
5171;SDS011;2605;49.770;9.868;2023-05-07T12:21:59;4.63;;;4.33;;
5171;SDS011;2605;49.770;9.868;2023-05-07T12:24:26;4.43;;;4.13;;
5171;SDS011;2605;49.770;9.868;2023-05-07T12:26:51;5.10;;;4.80;;
5171;SDS011;2605;49.770;9.868;2023-05-07T12:29:17;4.67;;;4.27;;
5171;SDS011;2605;49.770;9.868;2023-05-07T12:31:46;7.83;;;4.87;;
5171;SDS011;2605;49.770;9.868;2023-05-07T12:34:12;4.43;;;4.17;;
5171;SDS011;2605;49.770;9.868;2023-05-07T12:36:38;4.37;;;4.10;;
5171;SDS011;2605;49.770;9.868;2023-05-07T12:39:05;3.70;;;3.50;;
5171;SDS011;2605;49.770;9.868;2023-05-07T12:41:34;3.87;;;3.50;;
5171;SDS011;2605;49.770;9.868;2023-05-07T12:44:16;3.90;;;3.70;;
5171;SDS011;2605;49.770;9.868;2023-05-07T12:46:42;4.40;;;4.00;;
5171;SDS011;2605;49.770;9.868;2023-05-07T12:49:07;3.60;;;3.40;;
5171;SDS011;2605;49.770;9.868;2023-05-07T12:51:34;4.13;;;3.90;;
5171;SDS011;2605;49.770;9.868;2023-05-07T12:54:00;4.10;;;3.80;;
5171;SDS011;2605;49.770;9.868;2023-05-07T12:56:25;4.63;;;4.33;;
5171;SDS011;2605;49.770;9.868;2023-05-07T12:58:51;4.10;;;3.60;;
5171;SDS011;2605;49.770;9.868;2023-05-07T13:01:21;4.30;;;3.60;;
5171;SDS011;2605;49.770;9.868;2023-05-07T13:03:48;3.90;;;3.60;;
5171;SDS011;2605;49.770;9.868;2023-05-07T13:06:15;4.27;;;4.03;;
5171;SDS011;2605;49.770;9.868;2023-05-07T13:08:41;4.47;;;4.17;;
5171;SDS011;2605;49.770;9.868;2023-05-07T13:11:10;3.57;;;3.27;;
5171;SDS011;2605;49.770;9.868;2023-05-07T13:13:37;5.77;;;4.10;;
5171;SDS011;2605;49.770;9.868;2023-05-07T13:16:06;3.13;;;2.97;;
5171;SDS011;2605;49.770;9.868;2023-05-07T13:18:33;3.03;;;2.83;;
5171;SDS011;2605;49.770;9.868;2023-05-07T13:20:59;4.30;;;4.10;;
5171;SDS011;2605;49.770;9.868;2023-05-07T13:23:25;3.63;;;3.23;;
5171;SDS011;2605;49.770;9.868;2023-05-07T13:25:51;3.00;;;2.90;;
5171;SDS011;2605;49.770;9.868;2023-05-07T13:28:20;2.93;;;2.73;;
5171;SDS011;2605;49.770;9.868;2023-05-07T13:30:46;3.37;;;3.07;;
5171;SDS011;2605;49.770;9.868;2023-05-07T13:33:12;7.13;;;3.03;;
5171;SDS011;2605;49.770;9.868;2023-05-07T13:35:38;2.97;;;2.77;;
5171;SDS011;2605;49.770;9.868;2023-05-07T13:38:03;3.23;;;3.03;;
5171;SDS011;2605;49.770;9.868;2023-05-07T13:40:29;3.27;;;3.07;;
5171;SDS011;2605;49.770;9.868;2023-05-07T13:42:56;3.23;;;3.00;;
5171;SDS011;2605;49.770;9.868;2023-05-07T13:45:23;3.17;;;2.90;;
5171;SDS011;2605;49.770;9.868;2023-05-07T13:47:50;2.87;;;2.67;;
5171;SDS011;2605;49.770;9.868;2023-05-07T13:50:16;2.77;;;2.57;;
5171;SDS011;2605;49.770;9.868;2023-05-07T13:52:42;3.03;;;2.83;;
5171;SDS011;2605;49.770;9.868;2023-05-07T13:55:09;2.57;;;2.47;;
5171;SDS011;2605;49.770;9.868;2023-05-07T13:57:37;3.00;;;2.80;;
5171;SDS011;2605;49.770;9.868;2023-05-07T14:00:03;2.87;;;2.67;;
5171;SDS011;2605;49.770;9.868;2023-05-07T14:02:30;3.23;;;3.03;;
5171;SDS011;2605;49.770;9.868;2023-05-07T14:04:56;3.47;;;2.80;;
5171;SDS011;2605;49.770;9.868;2023-05-07T14:07:21;2.97;;;2.87;;
5171;SDS011;2605;49.770;9.868;2023-05-07T14:09:47;2.73;;;2.53;;
5171;SDS011;2605;49.770;9.868;2023-05-07T14:12:12;2.63;;;2.43;;
5171;SDS011;2605;49.770;9.868;2023-05-07T14:14:38;3.00;;;2.80;;
5171;SDS011;2605;49.770;9.868;2023-05-07T14:17:03;2.87;;;2.77;;
5171;SDS011;2605;49.770;9.868;2023-05-07T14:19:33;2.97;;;2.77;;
5171;SDS011;2605;49.770;9.868;2023-05-07T14:21:58;2.90;;;2.70;;
5171;SDS011;2605;49.770;9.868;2023-05-07T14:24:24;3.07;;;2.87;;
5171;SDS011;2605;49.770;9.868;2023-05-07T14:26:49;2.90;;;2.80;;
5171;SDS011;2605;49.770;9.868;2023-05-07T14:29:15;2.70;;;2.60;;
5171;SDS011;2605;49.770;9.868;2023-05-07T14:31:43;3.22;;;2.97;;
5171;SDS011;2605;49.770;9.868;2023-05-07T14:34:09;3.50;;;3.30;;
5171;SDS011;2605;49.770;9.868;2023-05-07T14:36:35;3.78;;;3.55;;
5171;SDS011;2605;49.770;9.868;2023-05-07T14:39:00;3.72;;;3.63;;
5171;SDS011;2605;49.770;9.868;2023-05-07T14:41:26;3.67;;;3.50;;
5171;SDS011;2605;49.770;9.868;2023-05-07T14:43:51;3.45;;;3.35;;
5171;SDS011;2605;49.770;9.868;2023-05-07T14:46:17;3.28;;;3.17;;
5171;SDS011;2605;49.770;9.868;2023-05-07T14:48:46;3.15;;;3.05;;
5171;SDS011;2605;49.770;9.868;2023-05-07T14:51:12;3.85;;;3.65;;
5171;SDS011;2605;49.770;9.868;2023-05-07T14:53:38;3.85;;;3.25;;
5171;SDS011;2605;49.770;9.868;2023-05-07T14:56:04;3.40;;;3.30;;
5171;SDS011;2605;49.770;9.868;2023-05-07T14:58:30;3.10;;;2.87;;
5171;SDS011;2605;49.770;9.868;2023-05-07T15:00:56;3.30;;;3.10;;
5171;SDS011;2605;49.770;9.868;2023-05-07T15:03:21;2.40;;;2.30;;
5171;SDS011;2605;49.770;9.868;2023-05-07T15:05:47;3.93;;;3.63;;
5171;SDS011;2605;49.770;9.868;2023-05-07T15:08:15;3.83;;;3.40;;
5171;SDS011;2605;49.770;9.868;2023-05-07T15:10:41;3.80;;;3.60;;
5171;SDS011;2605;49.770;9.868;2023-05-07T15:13:07;3.93;;;3.63;;
5171;SDS011;2605;49.770;9.868;2023-05-07T15:15:34;3.57;;;3.20;;
5171;SDS011;2605;49.770;9.868;2023-05-07T15:17:59;5.00;;;4.20;;
5171;SDS011;2605;49.770;9.868;2023-05-07T15:20:25;4.47;;;4.07;;
5171;SDS011;2605;49.770;9.868;2023-05-07T15:22:51;4.30;;;3.90;;
5171;SDS011;2605;49.770;9.868;2023-05-07T15:25:17;3.60;;;3.40;;
5171;SDS011;2605;49.770;9.868;2023-05-07T15:27:42;3.90;;;3.70;;
5171;SDS011;2605;49.770;9.868;2023-05-07T15:30:08;4.53;;;4.23;;